createdAt,value
2023-04-24T00:02:14.855Z,100019.85
2023-04-24T00:04:47.015Z,100019.99
2023-04-24T00:07:15.431Z,100022.02
2023-04-24T00:09:44.997Z,100020.19
2023-04-24T00:12:13.437Z,100020.22
2023-04-24T00:14:41.753Z,100019.80
2023-04-24T00:17:09.928Z,100021.67
2023-04-24T00:19:38.537Z,100024.21
2023-04-24T00:22:06.665Z,100025.08
2023-04-24T00:24:34.752Z,100022.48
2023-04-24T00:27:03.646Z,100024.40
2023-04-24T00:29:31.847Z,100021.39
2023-04-24T00:32:00.068Z,100021.98
2023-04-24T00:34:28.335Z,100019.60
2023-04-24T00:36:56.399Z,100020.77
2023-04-24T00:39:24.550Z,100019.95
2023-04-24T00:41:53.732Z,100015.59
2023-04-24T00:44:22.086Z,100015.50
2023-04-24T00:46:55.661Z,100016.80
2023-04-24T00:49:23.888Z,100013.55
2023-04-24T00:51:52.367Z,100014.09
2023-04-24T00:54:20.684Z,100013.55
2023-04-24T00:56:49.484Z,100016.69
2023-04-24T00:59:18.821Z,100015.43
2023-04-24T01:01:48.044Z,100015.52
2023-04-24T01:04:19.077Z,100016.42
2023-04-24T01:06:47.557Z,100016.75
2023-04-24T01:09:16.305Z,100011.17
2023-04-24T01:11:44.544Z,100005.55
2023-04-24T01:14:13.807Z,100002.17
2023-04-24T01:16:43.155Z,100003.77
2023-04-24T01:19:13.637Z,100007.33
2023-04-24T01:21:44.392Z,100006.80
2023-04-24T01:24:13.174Z,100004.01
2023-04-24T01:26:41.417Z,100003.77
2023-04-24T01:29:09.597Z,100002.20
2023-04-24T01:31:38.234Z,100002.70
2023-04-24T01:34:07.594Z,100001.42
2023-04-24T01:36:36.404Z,99999.84
2023-04-24T01:39:04.795Z,99997.91
2023-04-24T01:41:33.744Z,100000.20
2023-04-24T01:44:02.457Z,100000.39
2023-04-24T01:46:31.758Z,100001.20
2023-04-24T01:49:01.914Z,100002.56
2023-04-24T01:51:30.117Z,100001.27
2023-04-24T01:53:58.677Z,99993.35
2023-04-24T01:56:29.764Z,99988.75
2023-04-24T01:58:58.741Z,99988.18
2023-04-24T02:01:27.058Z,99988.33
2023-04-24T02:03:55.342Z,99989.30
2023-04-24T02:06:23.553Z,99987.72
2023-04-24T02:08:51.660Z,99985.16
2023-04-24T02:11:19.897Z,99981.68
2023-04-24T02:13:48.085Z,99978.08
2023-04-24T02:16:16.289Z,99973.56
2023-04-24T02:18:44.841Z,99972.49
2023-04-24T02:21:12.942Z,99972.02
2023-04-24T02:23:41.194Z,99975.04
2023-04-24T02:26:09.600Z,99969.49
2023-04-24T02:28:37.690Z,99966.09
2023-04-24T02:31:07.385Z,99963.77
2023-04-24T02:33:36.549Z,99960.19
2023-04-24T02:36:04.918Z,99955.13
2023-04-24T02:38:32.977Z,99951.40
2023-04-24T02:41:01.886Z,99946.88
2023-04-24T02:43:30.065Z,99942.09
2023-04-24T02:45:58.184Z,99939.79
2023-04-24T02:48:26.512Z,99939.36
2023-04-24T02:50:54.758Z,99940.80
2023-04-24T02:53:23.899Z,99942.45
2023-04-24T02:55:52.010Z,99936.97
2023-04-24T02:58:21.147Z,99933.63
2023-04-24T03:00:49.327Z,99934.15
2023-04-24T03:03:17.570Z,99932.70
2023-04-24T03:05:45.844Z,99933.01
2023-04-24T03:08:15.618Z,99932.93
2023-04-24T03:10:46.869Z,99926.48
2023-04-24T03:13:17.943Z,99924.52
2023-04-24T03:15:47.616Z,99924.13
2023-04-24T03:18:15.936Z,99922.38
2023-04-24T03:20:47.625Z,99922.27
2023-04-24T03:23:16.276Z,99926.64
2023-04-24T03:25:45.140Z,99925.38
2023-04-24T03:28:13.927Z,99931.95
2023-04-24T03:30:50.371Z,99928.69
2023-04-24T03:33:19.611Z,99929.18
2023-04-24T03:35:56.641Z,99925.10
2023-04-24T03:38:25.004Z,99927.02
2023-04-24T03:41:00.351Z,99924.79
2023-04-24T03:43:39.275Z,99928.23
2023-04-24T03:46:10.425Z,99928.13
2023-04-24T03:48:42.289Z,99928.67
2023-04-24T03:51:10.907Z,99925.06
2023-04-24T03:53:40.748Z,99922.93
2023-04-24T03:56:09.241Z,99918.19
2023-04-24T03:58:38.954Z,99914.89
2023-04-24T04:01:07.560Z,99920.19
2023-04-24T04:03:51.066Z,99924.04
2023-04-24T04:06:22.663Z,99920.70
2023-04-24T04:08:52.015Z,99923.38
2023-04-24T04:11:21.049Z,99931.09
2023-04-24T04:13:49.232Z,99932.02
2023-04-24T04:16:20.129Z,99928.77
2023-04-24T04:18:49.796Z,99925.69
2023-04-24T04:21:18.121Z,99928.67
2023-04-24T04:23:46.528Z,99936.61
2023-04-24T04:26:36.591Z,99937.04
2023-04-24T04:29:10.180Z,99938.63
2023-04-24T04:31:42.093Z,99941.30
2023-04-24T04:34:13.845Z,99941.60
2023-04-24T04:36:43.056Z,99941.09
2023-04-24T04:39:34.087Z,99936.11
2023-04-24T04:42:08.820Z,99937.20
2023-04-24T04:44:41.001Z,99938.85
2023-04-24T04:47:11.939Z,99933.77
2023-04-24T04:49:40.435Z,99928.66
2023-04-24T04:52:12.703Z,99929.41
2023-04-24T04:54:41.220Z,99930.89
2023-04-24T04:57:10.091Z,99930.52
2023-04-24T04:59:38.481Z,99929.95
2023-04-24T05:02:10.594Z,99927.53
2023-04-24T05:04:39.897Z,99925.02
2023-04-24T05:07:08.498Z,99923.45
2023-04-24T05:09:39.549Z,99924.45
2023-04-24T05:12:08.693Z,99926.16
2023-04-24T05:14:41.624Z,99924.70
2023-04-24T05:17:11.166Z,99924.55
2023-04-24T05:19:39.820Z,99920.86
2023-04-24T05:22:10.739Z,99915.19
2023-04-24T05:24:43.390Z,99908.67
2023-04-24T05:27:20.493Z,99905.05
2023-04-24T05:29:50.598Z,99909.42
2023-04-24T05:32:19.043Z,99918.84
2023-04-24T05:34:47.714Z,99921.58
2023-04-24T05:37:15.856Z,99919.39
2023-04-24T05:39:44.282Z,99914.03
2023-04-24T05:42:12.856Z,99907.79
2023-04-24T05:44:41.244Z,99904.98
2023-04-24T05:47:09.297Z,99905.00
2023-04-24T05:49:37.433Z,99906.82
2023-04-24T05:52:07.588Z,99916.56
2023-04-24T05:54:36.261Z,99916.02
2023-04-24T05:57:08.531Z,99919.50
2023-04-24T05:59:50.135Z,99919.21
2023-04-24T06:02:20.847Z,99914.05
2023-04-24T06:04:49.525Z,99913.38
2023-04-24T06:07:19.248Z,99906.70
2023-04-24T06:09:48.318Z,99902.33
2023-04-24T06:12:17.754Z,99899.94
2023-04-24T06:14:56.604Z,99897.34
2023-04-24T06:17:44.925Z,99893.51
2023-04-24T06:20:14.044Z,99893.27
2023-04-24T06:22:42.091Z,99901.38
2023-04-24T06:25:12.113Z,99904.63
2023-04-24T06:27:40.551Z,99899.57
2023-04-24T06:30:10.355Z,99900.40
2023-04-24T06:32:38.493Z,99901.52
2023-04-24T06:35:09.173Z,99900.33
2023-04-24T06:37:37.676Z,99901.10
2023-04-24T06:40:08.332Z,99898.30
2023-04-24T06:42:37.607Z,99894.77
2023-04-24T06:45:06.339Z,99892.09
2023-04-24T06:47:34.441Z,99893.39
2023-04-24T06:50:02.635Z,99891.27
2023-04-24T06:52:33.908Z,99894.16
2023-04-24T06:55:06.079Z,99891.00
2023-04-24T06:57:34.129Z,99891.45
2023-04-24T07:00:02.529Z,99890.85
2023-04-24T07:02:31.111Z,99893.05
2023-04-24T07:04:59.222Z,99890.95
2023-04-24T07:07:27.640Z,99888.70
2023-04-24T07:09:57.458Z,99878.78
2023-04-24T07:12:25.496Z,99882.33
2023-04-24T07:14:53.556Z,99884.71
2023-04-24T07:17:22.158Z,99878.44
2023-04-24T07:19:51.070Z,99874.23
2023-04-24T07:22:19.273Z,99873.44
2023-04-24T07:24:47.580Z,99868.57
2023-04-24T07:27:16.356Z,99868.75
2023-04-24T07:29:44.886Z,99863.80
2023-04-24T07:32:13.541Z,99859.95
2023-04-24T07:34:41.793Z,99861.60
2023-04-24T07:37:10.024Z,99860.02
2023-04-24T07:39:38.132Z,99855.16
2023-04-24T07:42:06.325Z,99857.52
2023-04-24T07:44:34.457Z,99856.85
2023-04-24T07:47:02.748Z,99851.86
2023-04-24T07:49:30.880Z,99851.58
2023-04-24T07:52:01.533Z,99845.36
2023-04-24T07:54:30.533Z,99840.05
2023-04-24T07:56:58.662Z,99844.38
2023-04-24T07:59:26.842Z,99846.70
2023-04-24T08:01:55.817Z,99840.83
2023-04-24T08:04:24.165Z,99837.39
2023-04-24T08:06:52.659Z,99838.09
2023-04-24T08:09:21.411Z,99847.83
2023-04-24T08:11:49.718Z,99851.54
2023-04-24T08:14:17.858Z,99847.19
2023-04-24T08:16:46.433Z,99845.89
2023-04-24T08:19:14.557Z,99842.42
2023-04-24T08:21:42.582Z,99843.12
2023-04-24T08:24:10.828Z,99844.70
2023-04-24T08:26:39.045Z,99847.05
2023-04-24T08:29:07.967Z,99846.34
2023-04-24T08:31:36.982Z,99845.19
2023-04-24T08:34:05.288Z,99844.98
2023-04-24T08:36:45.961Z,99846.84
2023-04-24T08:39:16.497Z,99845.70
2023-04-24T08:41:46.306Z,99841.04
2023-04-24T08:44:16.843Z,99840.64
2023-04-24T08:46:48.819Z,99835.16
2023-04-24T08:49:17.758Z,99828.36
2023-04-24T08:51:48.668Z,99825.40
2023-04-24T08:54:17.902Z,99824.84
2023-04-24T08:56:49.290Z,99824.70
2023-04-24T08:59:17.791Z,99832.66
2023-04-24T09:01:47.835Z,99833.85
2023-04-24T09:04:19.298Z,99825.67
2023-04-24T09:06:50.047Z,99824.55
2023-04-24T09:09:19.446Z,99831.01
2023-04-24T09:11:48.104Z,99834.45
2023-04-24T09:14:17.133Z,99830.73
2023-04-24T09:16:45.286Z,99826.36
2023-04-24T09:19:13.623Z,99827.09
2023-04-24T09:21:44.875Z,99826.66
2023-04-24T09:24:19.537Z,99826.89
2023-04-24T09:26:48.532Z,99821.36
2023-04-24T09:29:17.980Z,99819.39
2023-04-24T09:31:47.154Z,99820.35
2023-04-24T09:34:15.695Z,99815.38
2023-04-24T09:36:44.127Z,99813.70
2023-04-24T09:39:16.912Z,99808.52
2023-04-24T09:41:46.615Z,99805.79
2023-04-24T09:44:27.130Z,99809.39
2023-04-24T09:46:57.672Z,99808.83
2023-04-24T09:49:31.051Z,99805.41
2023-04-24T09:52:07.858Z,99802.05
2023-04-24T09:54:37.958Z,99800.88
2023-04-24T09:57:09.233Z,99795.67
2023-04-24T09:59:45.280Z,99792.59
2023-04-24T10:02:21.223Z,99788.41
2023-04-24T10:05:01.647Z,99782.80
2023-04-24T10:07:30.008Z,99774.89
2023-04-24T10:09:58.740Z,99770.52
2023-04-24T10:12:28.321Z,99771.01
2023-04-24T10:14:57.454Z,99768.50
2023-04-24T10:17:26.265Z,99770.49
2023-04-24T10:19:55.349Z,99775.38
2023-04-24T10:22:24.885Z,99772.63
2023-04-24T10:24:53.298Z,99766.91
2023-04-24T10:27:22.737Z,99756.59
2023-04-24T10:29:54.450Z,99752.36
2023-04-24T10:32:22.750Z,99755.42
2023-04-24T10:34:50.903Z,99758.27
2023-04-24T10:37:20.029Z,99752.70
2023-04-24T10:39:52.636Z,99747.41
2023-04-24T10:42:20.944Z,99747.77
2023-04-24T10:44:50.307Z,99742.16
2023-04-24T10:47:18.802Z,99739.25
2023-04-24T10:49:46.923Z,99739.30
2023-04-24T10:52:16.036Z,99739.41
2023-04-24T10:54:48.427Z,99734.52
2023-04-24T10:57:19.433Z,99732.52
2023-04-24T10:59:49.705Z,99730.44
2023-04-24T11:02:19.416Z,99732.54
2023-04-24T11:04:52.327Z,99730.14
2023-04-24T11:07:22.239Z,99727.30
2023-04-24T11:09:59.875Z,99722.45
2023-04-24T11:12:28.064Z,99719.36
2023-04-24T11:15:00.534Z,99719.09
2023-04-24T11:17:34.366Z,99724.88
2023-04-24T11:20:19.038Z,99723.52
2023-04-24T11:22:58.941Z,99717.64
2023-04-24T11:25:32.260Z,99715.55
2023-04-24T11:28:07.310Z,99712.91
2023-04-24T11:30:36.377Z,99714.27
2023-04-24T11:33:06.108Z,99708.64
2023-04-24T11:35:41.786Z,99704.79
2023-04-24T11:40:43.074Z,99704.27
2023-04-24T11:43:12.222Z,99702.11
2023-04-24T11:45:49.460Z,99699.23
2023-04-24T11:48:23.644Z,99697.44
2023-04-24T11:50:52.950Z,99699.23
2023-04-24T11:53:22.796Z,99696.86
2023-04-24T11:55:51.082Z,99696.10
2023-04-24T11:58:23.287Z,99693.55
2023-04-24T12:00:59.263Z,99692.42
2023-04-24T12:03:28.559Z,99692.17
2023-04-24T12:06:09.130Z,99691.26
2023-04-24T12:08:38.570Z,99690.13
2023-04-24T12:11:08.377Z,99682.05
2023-04-24T12:13:37.535Z,99679.26
2023-04-24T12:16:06.913Z,99676.77
2023-04-24T12:18:35.677Z,99674.80
2023-04-24T12:21:22.966Z,99664.57
2023-04-24T12:23:52.142Z,99659.14
2023-04-24T12:26:22.391Z,99655.66
2023-04-24T12:28:50.808Z,99649.48
2023-04-24T12:31:21.744Z,99647.74
2023-04-24T12:33:50.022Z,99646.65
2023-04-24T12:36:18.183Z,99643.34
2023-04-24T12:38:47.636Z,99642.86
2023-04-24T12:41:16.303Z,99639.64
2023-04-24T12:43:54.801Z,99630.23
2023-04-24T12:46:23.228Z,99625.77
2023-04-24T12:48:51.458Z,99623.50
2023-04-24T12:51:19.546Z,99613.87
2023-04-24T12:53:47.712Z,99612.89
2023-04-24T12:56:15.938Z,99613.95
2023-04-24T12:58:44.075Z,99607.61
2023-04-24T13:01:12.615Z,99602.73
2023-04-24T13:03:41.147Z,99596.59
2023-04-24T13:06:09.779Z,99593.23
2023-04-24T13:08:37.932Z,99583.95
2023-04-24T13:11:06.075Z,99586.92
2023-04-24T13:13:34.275Z,99588.97
2023-04-24T13:16:02.850Z,99584.73
2023-04-24T13:18:31.146Z,99585.63
2023-04-24T13:20:59.526Z,99582.56
2023-04-24T13:23:27.640Z,99574.27
2023-04-24T13:25:58.595Z,99569.55
2023-04-24T13:28:26.985Z,99568.76
2023-04-24T13:30:55.077Z,99555.25
2023-04-24T13:33:23.238Z,99556.05
2023-04-24T13:35:51.404Z,99546.09
2023-04-24T13:38:22.689Z,99546.08
2023-04-24T13:40:51.029Z,99546.57
2023-04-24T13:43:19.260Z,99542.11
2023-04-24T13:45:47.392Z,99540.59
2023-04-24T13:48:18.980Z,99535.27
2023-04-24T13:50:49.435Z,99535.33
2023-04-24T13:53:17.919Z,99529.30
2023-04-24T13:55:46.057Z,99522.20
2023-04-24T13:58:14.223Z,99522.09
2023-04-24T14:00:42.488Z,99515.84
2023-04-24T14:03:10.784Z,99515.60
2023-04-24T14:05:39.011Z,99513.04
2023-04-24T14:08:07.417Z,99506.79
2023-04-24T14:10:35.724Z,99501.30
2023-04-24T14:13:04.515Z,99493.41
2023-04-24T14:15:32.722Z,99494.20
2023-04-24T14:18:01.028Z,99493.29
2023-04-24T14:20:29.266Z,99493.23
2023-04-24T14:23:00.165Z,99484.13
2023-04-24T14:25:28.481Z,99485.53
2023-04-24T14:27:56.910Z,99486.99
2023-04-24T14:30:25.015Z,99487.40
2023-04-24T14:32:53.282Z,99480.45
2023-04-24T14:35:21.489Z,99478.11
2023-04-24T14:37:50.278Z,99483.52
2023-04-24T14:40:39.564Z,99490.05
2023-04-24T14:43:06.484Z,99482.39
2023-04-24T14:45:34.653Z,99489.42
2023-04-24T14:48:02.773Z,99485.20
2023-04-24T14:50:31.297Z,99502.42
2023-04-24T14:52:59.659Z,99496.58
2023-04-24T14:55:27.708Z,99497.89
2023-04-24T14:57:56.577Z,99503.63
2023-04-24T15:00:25.093Z,99500.73
2023-04-24T15:02:53.453Z,99506.59
2023-04-24T15:05:22.310Z,99513.38
2023-04-24T15:07:51.162Z,99510.73
2023-04-24T15:10:19.881Z,99510.61
2023-04-24T15:12:48.075Z,99517.55
2023-04-24T15:15:16.498Z,99517.77
2023-04-24T15:17:44.673Z,99516.20
2023-04-24T15:20:12.909Z,99520.86
2023-04-24T15:22:41.067Z,99531.16
2023-04-24T15:25:09.463Z,99527.48
2023-04-24T15:27:42.349Z,99533.75
2023-04-24T15:30:11.727Z,99535.63
2023-04-24T15:32:40.640Z,99531.15
2023-04-24T15:35:10.393Z,99529.31
2023-04-24T15:37:39.631Z,99534.29
2023-04-24T15:40:08.812Z,99549.66
2023-04-24T15:42:37.191Z,99558.48
2023-04-24T15:45:05.517Z,99556.02
2023-04-24T15:47:34.087Z,99555.85
2023-04-24T15:50:03.845Z,99558.34
2023-04-24T15:52:31.938Z,99557.02
2023-04-24T15:55:00.223Z,99560.48
2023-04-24T15:57:28.314Z,99564.82
2023-04-24T15:59:56.518Z,99570.27
2023-04-24T16:02:24.988Z,99570.59
2023-04-24T16:04:54.346Z,99586.55
2023-04-24T16:07:22.685Z,99592.55
2023-04-24T16:09:50.901Z,99600.17
2023-04-24T16:12:19.795Z,99611.58
2023-04-24T16:14:48.071Z,99607.00
2023-04-24T16:17:16.285Z,99613.35
2023-04-24T16:19:44.495Z,99615.67
2023-04-24T16:22:12.624Z,99608.11
2023-04-24T16:24:40.761Z,99613.42
2023-04-24T16:27:09.118Z,99608.23
2023-04-24T16:29:37.261Z,99608.71
2023-04-24T16:32:05.397Z,99612.31
2023-04-24T16:34:33.624Z,99608.91
2023-04-24T16:37:01.978Z,99610.09
2023-04-24T16:39:30.515Z,99613.14
2023-04-24T16:41:59.981Z,99614.64
2023-04-24T16:44:28.802Z,99616.50
2023-04-24T16:46:57.385Z,99619.39
2023-04-24T16:49:31.045Z,99619.27
2023-04-24T16:51:59.754Z,99619.41
2023-04-24T16:54:28.340Z,99621.17
2023-04-24T16:56:57.006Z,99620.41
2023-04-24T16:59:25.088Z,99616.75
2023-04-24T17:01:53.198Z,99615.37
2023-04-24T17:04:21.431Z,99619.13
2023-04-24T17:06:49.645Z,99622.79
2023-04-24T17:09:17.881Z,99627.29
2023-04-24T17:11:46.144Z,99623.40
2023-04-24T17:14:14.227Z,99622.42
2023-04-24T17:16:42.447Z,99622.23
2023-04-24T17:19:11.336Z,99625.07
2023-04-24T17:21:39.521Z,99622.16
2023-04-24T17:24:07.675Z,99620.59
2023-04-24T17:26:35.886Z,99618.30
2023-04-24T17:29:04.272Z,99618.48
2023-04-24T17:31:32.435Z,99621.33
2023-04-24T17:34:00.705Z,99621.83
2023-04-24T17:36:28.815Z,99617.00
2023-04-24T17:38:57.089Z,99617.16
2023-04-24T17:41:25.401Z,99620.73
2023-04-24T17:43:53.531Z,99620.25
2023-04-24T17:46:21.720Z,99622.02
2023-04-24T17:48:50.081Z,99621.41
2023-04-24T17:51:18.159Z,99617.73
2023-04-24T17:53:46.345Z,99618.45
2023-04-24T17:56:14.719Z,99620.94
2023-04-24T17:58:42.946Z,99622.77
2023-04-24T18:01:11.122Z,99622.08
2023-04-24T18:03:39.528Z,99622.73
2023-04-24T18:06:07.818Z,99620.75
2023-04-24T18:08:36.689Z,99622.71
2023-04-24T18:11:05.151Z,99623.40
2023-04-24T18:13:33.451Z,99626.61
2023-04-24T18:16:01.693Z,99623.09
2023-04-24T18:18:30.130Z,99623.59
2023-04-24T18:20:58.506Z,99622.02
2023-04-24T18:23:26.678Z,99625.73
2023-04-24T18:25:54.783Z,99630.24
2023-04-24T18:28:23.104Z,99637.02
2023-04-24T18:30:51.696Z,99636.08
2023-04-24T18:33:20.402Z,99641.11
2023-04-24T18:35:48.576Z,99638.34
2023-04-24T18:38:17.256Z,99639.45
2023-04-24T18:40:45.583Z,99637.94
2023-04-24T18:43:13.731Z,99635.49
2023-04-24T18:45:41.854Z,99634.47
2023-04-24T18:48:10.241Z,99635.33
2023-04-24T18:50:40.748Z,99637.58
2023-04-24T18:53:09.968Z,99639.41
2023-04-24T18:55:38.452Z,99640.92
2023-04-24T18:58:06.670Z,99638.21
2023-04-24T19:00:34.894Z,99635.88
2023-04-24T19:03:03.519Z,99634.71
2023-04-24T19:05:31.963Z,99633.31
2023-04-24T19:08:00.109Z,99632.91
2023-04-24T19:10:29.176Z,99628.98
2023-04-24T19:12:57.507Z,99628.27
2023-04-24T19:15:25.960Z,99626.35
2023-04-24T19:17:54.388Z,99625.45
2023-04-24T19:20:22.753Z,99629.99
2023-04-24T19:22:51.215Z,99632.67
2023-04-24T19:25:20.107Z,99635.19
2023-04-24T19:27:48.512Z,99639.39
2023-04-24T19:30:16.676Z,99645.36
2023-04-24T19:32:44.788Z,99657.08
2023-04-24T19:35:13.124Z,99675.33
2023-04-24T19:37:41.544Z,99690.80
2023-04-24T19:40:09.921Z,99695.70
2023-04-24T19:42:43.962Z,99697.67
2023-04-24T19:45:13.519Z,99697.90
2023-04-24T19:47:41.799Z,99710.45
2023-04-24T19:50:10.272Z,99711.96
2023-04-24T19:52:38.432Z,99720.92
2023-04-24T19:55:08.444Z,99737.02
2023-04-24T19:57:36.565Z,99751.30
2023-04-24T20:00:05.301Z,99755.47
2023-04-24T20:02:33.463Z,99752.86
2023-04-24T20:05:02.119Z,99747.83
2023-04-24T20:07:30.361Z,99736.93
2023-04-24T20:09:58.683Z,99734.60
2023-04-24T20:12:26.881Z,99734.94
2023-04-24T20:14:55.380Z,99731.77
2023-04-24T20:17:23.498Z,99734.98
2023-04-24T20:19:51.812Z,99731.52
2023-04-24T20:22:20.174Z,99731.77
2023-04-24T20:24:48.396Z,99739.11
2023-04-24T20:27:16.771Z,99739.83
2023-04-24T20:29:45.065Z,99741.73
2023-04-24T20:32:13.175Z,99749.19
2023-04-24T20:34:41.598Z,99746.45
2023-04-24T20:37:09.766Z,99744.45
2023-04-24T20:39:38.925Z,99737.94
2023-04-24T20:42:07.803Z,99729.66
2023-04-24T20:44:35.976Z,99728.51
2023-04-24T20:47:04.237Z,99720.83
2023-04-24T20:49:32.512Z,99713.22
2023-04-24T20:52:00.708Z,99709.40
2023-04-24T20:54:29.002Z,99705.80
2023-04-24T20:56:58.128Z,99701.98
2023-04-24T20:59:26.464Z,99701.04
2023-04-24T21:01:54.988Z,99697.40
2023-04-24T21:04:23.224Z,99695.48
2023-04-24T21:06:51.588Z,99692.82
2023-04-24T21:09:19.737Z,99687.94
2023-04-24T21:11:47.882Z,99678.99
2023-04-24T21:14:16.160Z,99675.17
2023-04-24T21:16:44.337Z,99673.48
2023-04-24T21:19:12.689Z,99673.06
2023-04-24T21:21:40.792Z,99669.83
2023-04-24T21:24:08.912Z,99660.54
2023-04-24T21:26:37.277Z,99657.67
2023-04-24T21:29:05.580Z,99661.31
2023-04-24T21:31:33.695Z,99661.88
2023-04-24T21:34:01.726Z,99660.84
2023-04-24T21:36:32.354Z,99658.77
2023-04-24T21:39:01.068Z,99660.76
2023-04-24T21:41:29.240Z,99666.48
2023-04-24T21:43:57.493Z,99666.58
2023-04-24T21:46:26.707Z,99666.95
2023-04-24T21:48:54.942Z,99663.35
2023-04-24T21:51:23.161Z,99656.17
2023-04-24T21:53:51.757Z,99652.58
2023-04-24T21:56:20.602Z,99655.33
2023-04-24T21:58:48.871Z,99661.98
2023-04-24T22:01:17.231Z,99663.04
2023-04-24T22:03:45.447Z,99671.31
2023-04-24T22:06:14.786Z,99669.95
2023-04-24T22:08:47.399Z,99676.66
2023-04-24T22:11:25.903Z,99674.56
2023-04-24T22:13:55.532Z,99671.58
2023-04-24T22:16:24.497Z,99664.99
2023-04-24T22:18:55.726Z,99660.85
2023-04-24T22:21:23.928Z,99656.11
2023-04-24T22:23:52.383Z,99657.35
2023-04-24T22:26:21.076Z,99654.30
2023-04-24T22:28:49.417Z,99651.27
2023-04-24T22:31:17.620Z,99650.45
2023-04-24T22:33:49.385Z,99649.10
2023-04-24T22:36:17.711Z,99649.00
2023-04-24T22:38:45.868Z,99650.27
2023-04-24T22:41:14.273Z,99649.92
2023-04-24T22:43:42.601Z,99648.93
2023-04-24T22:46:10.890Z,99647.71
2023-04-24T22:48:39.012Z,99644.43
2023-04-24T22:51:07.118Z,99641.59
2023-04-24T22:53:36.341Z,99641.70
2023-04-24T22:56:04.746Z,99638.73
2023-04-24T22:58:33.112Z,99636.70
2023-04-24T23:01:01.553Z,99631.85
2023-04-24T23:03:29.841Z,99627.54
2023-04-24T23:05:58.030Z,99625.81
2023-04-24T23:08:26.278Z,99623.01
2023-04-24T23:10:54.373Z,99622.92
2023-04-24T23:13:22.479Z,99620.16
2023-04-24T23:15:51.937Z,99618.33
2023-04-24T23:18:21.611Z,99617.05
2023-04-24T23:20:49.788Z,99607.98
2023-04-24T23:23:18.180Z,99605.89
2023-04-24T23:25:46.220Z,99603.70
2023-04-24T23:28:14.621Z,99599.35
2023-04-24T23:30:42.902Z,99588.08
2023-04-24T23:33:11.955Z,99591.77
2023-04-24T23:35:40.621Z,99589.95
2023-04-24T23:38:08.932Z,99588.31
2023-04-24T23:40:37.105Z,99584.77
2023-04-24T23:43:08.056Z,99583.27
2023-04-24T23:45:37.179Z,99581.77
2023-04-24T23:48:05.949Z,99578.48
2023-04-24T23:50:34.590Z,99573.40
2023-04-24T23:53:02.823Z,99575.94
2023-04-24T23:55:30.958Z,99575.92
2023-04-24T23:57:59.265Z,99573.42
